createdAt,value
2023-05-18T00:00:02.182Z,0.00
2023-05-18T00:01:01.737Z,0.00
2023-05-18T00:02:01.922Z,0.00
2023-05-18T00:03:02.275Z,0.00
2023-05-18T00:04:02.472Z,0.00
2023-05-18T00:05:03.229Z,0.00
2023-05-18T00:06:02.737Z,0.00
2023-05-18T00:07:04.690Z,0.00
2023-05-18T00:08:03.087Z,0.00
2023-05-18T00:09:03.153Z,0.00
2023-05-18T00:10:03.358Z,0.00
2023-05-18T00:11:05.055Z,0.00
2023-05-18T00:12:04.212Z,0.00
2023-05-18T00:13:05.184Z,0.00
2023-05-18T00:14:04.028Z,0.00
2023-05-18T00:15:04.681Z,0.00
2023-05-18T00:16:05.262Z,0.00
2023-05-18T00:17:05.185Z,0.00
2023-05-18T00:18:04.927Z,0.00
2023-05-18T00:19:04.993Z,0.00
2023-05-18T00:20:05.182Z,0.00
2023-05-18T00:21:05.385Z,0.00
2023-05-18T00:22:06.186Z,0.00
2023-05-18T00:23:05.861Z,0.00
2023-05-18T00:24:06.005Z,0.00
2023-05-18T00:25:07.745Z,0.00
2023-05-18T00:26:07.184Z,0.00
2023-05-18T00:27:06.547Z,0.00
2023-05-18T00:28:06.716Z,0.00
2023-05-18T00:29:07.690Z,0.00
2023-05-18T00:30:07.053Z,0.00
2023-05-18T00:31:07.249Z,0.00
2023-05-18T00:32:08.234Z,0.00
2023-05-18T00:33:07.664Z,0.00
2023-05-18T00:34:07.761Z,0.00
2023-05-18T00:35:08.693Z,0.00
2023-05-18T00:36:08.063Z,0.00
2023-05-18T00:37:08.737Z,0.00
2023-05-18T00:38:08.356Z,0.00
2023-05-18T00:39:08.746Z,0.00
2023-05-18T00:40:08.640Z,0.00
2023-05-18T00:41:09.795Z,0.00
2023-05-18T00:42:10.202Z,0.00
2023-05-18T00:43:09.705Z,0.00
2023-05-18T00:44:10.197Z,0.00
2023-05-18T00:45:09.551Z,0.00
2023-05-18T00:46:10.767Z,0.00
2023-05-18T00:47:09.827Z,0.00
2023-05-18T00:48:09.952Z,0.00
2023-05-18T00:49:10.106Z,0.00
2023-05-18T00:50:10.295Z,0.00
2023-05-18T00:51:10.459Z,0.00
2023-05-18T00:52:12.198Z,0.00
2023-05-18T00:53:10.831Z,0.00
2023-05-18T00:54:11.717Z,0.00
2023-05-18T00:55:11.751Z,0.00
2023-05-18T00:56:11.371Z,0.00
2023-05-18T00:57:12.067Z,0.00
2023-05-18T00:58:11.680Z,0.00
2023-05-18T00:59:12.037Z,0.00
2023-05-18T01:00:11.964Z,0.00
2023-05-18T01:01:12.213Z,0.00
2023-05-18T01:02:12.345Z,0.00
2023-05-18T01:03:13.410Z,0.00
2023-05-18T01:04:13.276Z,0.00
2023-05-18T01:05:13.746Z,0.00
2023-05-18T01:06:13.037Z,0.00
2023-05-18T01:07:14.069Z,0.00
2023-05-18T01:08:14.243Z,0.00
2023-05-18T01:09:13.603Z,0.00
2023-05-18T01:10:13.640Z,0.00
2023-05-18T01:11:14.793Z,0.00
2023-05-18T01:12:14.708Z,0.00
2023-05-18T01:13:14.709Z,0.00
2023-05-18T01:14:17.216Z,0.00
2023-05-18T01:15:14.603Z,0.00
2023-05-18T01:16:14.800Z,0.00
2023-05-18T01:17:15.030Z,0.00
2023-05-18T01:18:15.161Z,0.00
2023-05-18T01:19:15.810Z,0.00
2023-05-18T01:20:15.414Z,0.00
2023-05-18T01:21:15.606Z,0.00
2023-05-18T01:22:15.785Z,0.00
2023-05-18T01:23:15.976Z,0.00
2023-05-18T01:24:16.204Z,0.00
2023-05-18T01:25:17.232Z,0.00
2023-05-18T01:26:16.486Z,0.00
2023-05-18T01:27:16.704Z,0.00
2023-05-18T01:28:17.709Z,0.00
2023-05-18T01:29:17.709Z,0.00
2023-05-18T01:30:17.295Z,0.00
2023-05-18T01:31:18.388Z,0.00
2023-05-18T01:32:18.251Z,0.00
2023-05-18T01:33:18.269Z,0.00
2023-05-18T01:34:18.715Z,0.00
2023-05-18T01:35:18.180Z,0.00
2023-05-18T01:36:18.387Z,0.00
2023-05-18T01:37:18.602Z,0.00
2023-05-18T01:38:18.806Z,0.00
2023-05-18T01:39:19.715Z,0.00
2023-05-18T01:40:19.137Z,0.00
2023-05-18T01:41:19.326Z,0.00
2023-05-18T01:42:19.558Z,0.00
2023-05-18T01:43:19.816Z,0.00
2023-05-18T01:44:20.719Z,0.00
2023-05-18T01:45:20.722Z,0.00
2023-05-18T01:46:20.293Z,0.00
2023-05-18T01:47:20.774Z,0.00
2023-05-18T01:48:21.256Z,0.00
2023-05-18T01:49:21.711Z,0.00
2023-05-18T01:50:20.867Z,0.00
2023-05-18T01:51:22.238Z,0.00
2023-05-18T01:52:21.362Z,0.00
2023-05-18T01:53:21.436Z,0.00
2023-05-18T01:54:22.253Z,0.00
2023-05-18T01:55:21.783Z,0.00
2023-05-18T01:56:22.008Z,0.00
2023-05-18T01:57:22.210Z,0.00
2023-05-18T01:58:23.291Z,0.00
2023-05-18T01:59:23.213Z,0.00
2023-05-18T02:00:23.258Z,0.00
2023-05-18T02:01:23.055Z,0.00
2023-05-18T02:02:23.813Z,0.00
2023-05-18T02:03:23.875Z,0.00
2023-05-18T02:04:23.427Z,0.00
2023-05-18T02:05:23.589Z,0.00
2023-05-18T02:06:24.712Z,0.00
2023-05-18T02:07:23.939Z,0.00
2023-05-18T02:08:24.071Z,0.00
2023-05-18T02:09:24.245Z,0.00
2023-05-18T02:10:24.426Z,0.00
2023-05-18T02:11:24.586Z,0.00
2023-05-18T02:12:24.779Z,0.00
2023-05-18T02:13:24.913Z,0.00
2023-05-18T02:14:25.043Z,0.00
2023-05-18T02:15:25.209Z,0.00
2023-05-18T02:16:25.421Z,0.00
2023-05-18T02:17:26.361Z,0.00
2023-05-18T02:18:26.213Z,0.00
2023-05-18T02:19:25.945Z,0.00
2023-05-18T02:20:27.428Z,0.00
2023-05-18T02:21:26.315Z,0.00
2023-05-18T02:22:28.221Z,0.00
2023-05-18T02:23:26.594Z,0.00
2023-05-18T02:24:26.712Z,0.00
2023-05-18T02:25:26.862Z,0.00
2023-05-18T02:26:27.007Z,0.00
2023-05-18T02:27:27.169Z,0.00
2023-05-18T02:28:28.304Z,0.00
2023-05-18T02:29:28.261Z,0.00
2023-05-18T02:30:28.581Z,0.00
2023-05-18T02:31:27.832Z,0.00
2023-05-18T02:32:28.094Z,0.00
2023-05-18T02:33:28.170Z,0.00
2023-05-18T02:34:28.316Z,0.00
2023-05-18T02:35:29.396Z,0.00
2023-05-18T02:36:30.078Z,0.00
2023-05-18T02:37:29.712Z,0.00
2023-05-18T02:38:28.977Z,0.00
2023-05-18T02:39:29.148Z,0.00
2023-05-18T02:40:30.258Z,0.00
2023-05-18T02:41:29.499Z,0.00
2023-05-18T02:42:29.633Z,0.00
2023-05-18T02:43:29.801Z,0.00
2023-05-18T02:44:29.998Z,0.00
2023-05-18T02:45:30.960Z,0.00
2023-05-18T02:46:31.297Z,0.00
2023-05-18T02:47:31.264Z,0.00
2023-05-18T02:48:31.799Z,0.00
2023-05-18T02:49:32.726Z,0.00
2023-05-18T02:50:31.251Z,0.00
2023-05-18T02:51:32.266Z,0.00
2023-05-18T02:52:31.682Z,0.00
2023-05-18T02:53:31.883Z,0.00
2023-05-18T02:54:32.762Z,0.00
2023-05-18T02:55:32.523Z,0.00
2023-05-18T02:56:34.219Z,0.00
2023-05-18T02:57:32.761Z,0.00
2023-05-18T02:58:32.974Z,0.00
2023-05-18T02:59:33.184Z,0.00
2023-05-18T03:00:34.221Z,4.00
2023-05-18T03:01:34.295Z,4.00
2023-05-18T03:02:35.361Z,4.00
2023-05-18T03:03:34.814Z,0.00
2023-05-18T03:04:34.126Z,0.00
2023-05-18T03:05:35.224Z,4.00
2023-05-18T03:06:35.296Z,4.00
2023-05-18T03:07:34.681Z,4.00
2023-05-18T03:08:34.893Z,4.00
2023-05-18T03:09:35.089Z,4.00
2023-05-18T03:10:35.243Z,4.00
2023-05-18T03:11:36.727Z,4.00
2023-05-18T03:12:35.627Z,8.00
2023-05-18T03:13:36.767Z,8.00
2023-05-18T03:14:35.940Z,8.00
2023-05-18T03:15:36.121Z,12.00
2023-05-18T03:16:37.301Z,12.00
2023-05-18T03:17:36.483Z,16.00
2023-05-18T03:18:36.610Z,12.00
2023-05-18T03:19:36.773Z,16.00
2023-05-18T03:20:37.735Z,20.00
2023-05-18T03:21:37.738Z,20.00
2023-05-18T03:22:37.284Z,24.00
2023-05-18T03:23:37.455Z,24.00
2023-05-18T03:24:37.633Z,28.00
2023-05-18T03:25:37.797Z,28.00
2023-05-18T03:26:37.988Z,32.00
2023-05-18T03:27:38.770Z,36.00
2023-05-18T03:28:39.740Z,40.00
2023-05-18T03:29:38.524Z,44.00
2023-05-18T03:30:38.726Z,48.00
2023-05-18T03:31:38.935Z,52.00
2023-05-18T03:32:39.795Z,60.00
2023-05-18T03:33:39.269Z,68.00
2023-05-18T03:34:39.436Z,72.00
2023-05-18T03:35:39.576Z,76.00
2023-05-18T03:36:39.736Z,88.00
2023-05-18T03:37:40.596Z,92.00
2023-05-18T03:38:40.147Z,100.00
2023-05-18T03:39:40.355Z,112.00
2023-05-18T03:40:41.241Z,116.00
2023-05-18T03:41:40.780Z,128.00
2023-05-18T03:42:40.981Z,140.00
2023-05-18T03:43:41.744Z,152.00
2023-05-18T03:44:43.247Z,164.00
2023-05-18T03:45:41.642Z,172.00
2023-05-18T03:46:41.978Z,188.00
2023-05-18T03:47:42.025Z,204.00
2023-05-18T03:48:42.239Z,216.00
2023-05-18T03:49:44.102Z,232.00
2023-05-18T03:50:43.243Z,244.00
2023-05-18T03:51:43.740Z,260.00
2023-05-18T03:52:43.601Z,272.00
2023-05-18T03:53:43.112Z,288.00
2023-05-18T03:54:43.272Z,308.00
2023-05-18T03:55:45.743Z,320.00
2023-05-18T03:56:43.614Z,336.00
2023-05-18T03:57:44.744Z,356.00
2023-05-18T03:58:44.745Z,376.00
2023-05-18T03:59:44.111Z,392.00
2023-05-18T04:00:44.267Z,412.00
2023-05-18T04:01:45.381Z,428.00
2023-05-18T04:02:45.389Z,448.00
2023-05-18T04:03:45.353Z,464.00
2023-05-18T04:04:45.748Z,484.00
2023-05-18T04:05:45.781Z,504.00
2023-05-18T04:06:45.292Z,520.00
2023-05-18T04:07:46.240Z,544.00
2023-05-18T04:08:46.627Z,564.00
2023-05-18T04:09:45.772Z,584.00
2023-05-18T04:10:45.937Z,604.00
2023-05-18T04:11:46.812Z,624.00
2023-05-18T04:12:46.373Z,652.00
2023-05-18T04:13:46.537Z,676.00
2023-05-18T04:14:46.748Z,696.00
2023-05-18T04:15:46.913Z,724.00
2023-05-18T04:16:47.940Z,744.00
2023-05-18T04:17:49.302Z,772.00
2023-05-18T04:18:48.265Z,792.00
2023-05-18T04:19:47.751Z,816.00
2023-05-18T04:20:47.940Z,844.00
2023-05-18T04:21:48.133Z,868.00
2023-05-18T04:22:50.751Z,892.00
2023-05-18T04:23:48.510Z,920.00
2023-05-18T04:24:49.763Z,948.00
2023-05-18T04:25:48.898Z,972.00
2023-05-18T04:26:49.094Z,1000.00
2023-05-18T04:27:51.479Z,1028.00
2023-05-18T04:28:50.793Z,1052.00
2023-05-18T04:29:49.685Z,1088.00
2023-05-18T04:30:50.745Z,1112.00
2023-05-18T04:31:50.796Z,1144.00
2023-05-18T04:32:50.814Z,1176.00
2023-05-18T04:33:50.466Z,1216.00
2023-05-18T04:34:51.253Z,1252.00
2023-05-18T04:35:50.661Z,1296.00
2023-05-18T04:36:50.830Z,1336.00
2023-05-18T04:37:51.011Z,2308.00
2023-05-18T04:38:51.162Z,3196.00
2023-05-18T04:39:52.282Z,2360.00
2023-05-18T04:40:51.552Z,2456.00
2023-05-18T04:41:51.743Z,4432.00
2023-05-18T04:42:51.963Z,5700.00
2023-05-18T04:43:52.110Z,4176.00
2023-05-18T04:44:53.249Z,6164.00
2023-05-18T04:45:52.528Z,8124.00
2023-05-18T04:46:53.748Z,10344.00
2023-05-18T04:47:52.945Z,16096.00
2023-05-18T04:48:53.038Z,11968.00
2023-05-18T04:49:53.753Z,6372.00
2023-05-18T04:50:53.402Z,2280.00
2023-05-18T04:51:53.797Z,5012.00
2023-05-18T04:52:53.883Z,2752.00
2023-05-18T04:53:53.910Z,4352.00
2023-05-18T04:54:54.070Z,6908.00
2023-05-18T04:55:54.228Z,6948.00
2023-05-18T04:56:54.384Z,7220.00
2023-05-18T04:57:55.754Z,7940.00
2023-05-18T04:58:54.789Z,3152.00
2023-05-18T04:59:55.803Z,3280.00
2023-05-18T05:00:55.768Z,3088.00
2023-05-18T05:01:55.486Z,3036.00
2023-05-18T05:02:55.940Z,3580.00
2023-05-18T05:03:58.254Z,2952.00
2023-05-18T05:04:55.971Z,2548.00
2023-05-18T05:05:56.105Z,2448.00
2023-05-18T05:06:57.254Z,2468.00
2023-05-18T05:07:57.289Z,2496.00
2023-05-18T05:08:56.648Z,2684.00
2023-05-18T05:09:56.841Z,2380.00
2023-05-18T05:10:56.989Z,2376.00
2023-05-18T05:11:57.748Z,3452.00
2023-05-18T05:12:57.295Z,5164.00
2023-05-18T05:13:57.439Z,2816.00
2023-05-18T05:14:58.294Z,2656.00
2023-05-18T05:15:57.850Z,2684.00
2023-05-18T05:16:58.055Z,2664.00
2023-05-18T05:17:58.278Z,3048.00
2023-05-18T05:18:58.464Z,9640.00
2023-05-18T05:19:58.646Z,12380.00
2023-05-18T05:20:58.828Z,5848.00
2023-05-18T05:22:00.249Z,3652.00
2023-05-18T05:22:59.176Z,2804.00
2023-05-18T05:24:00.250Z,4008.00
2023-05-18T05:24:59.483Z,2772.00
2023-05-18T05:25:59.630Z,2588.00
2023-05-18T05:27:00.749Z,2668.00
2023-05-18T05:28:00.000Z,4456.00
2023-05-18T05:29:00.163Z,3220.00
2023-05-18T05:30:00.327Z,3116.00
2023-05-18T05:31:01.152Z,3552.00
2023-05-18T05:32:00.776Z,2776.00
2023-05-18T05:33:00.864Z,2852.00
2023-05-18T05:34:01.329Z,2852.00
2023-05-18T05:35:02.114Z,2876.00
2023-05-18T05:36:01.498Z,2852.00
2023-05-18T05:37:01.676Z,3176.00
2023-05-18T05:38:01.857Z,3232.00
2023-05-18T05:39:03.261Z,3768.00
2023-05-18T05:40:02.161Z,3132.00
2023-05-18T05:41:02.348Z,2932.00
2023-05-18T05:42:02.513Z,2968.00
2023-05-18T05:43:03.259Z,2948.00
2023-05-18T05:44:02.780Z,2976.00
2023-05-18T05:45:03.819Z,2996.00
2023-05-18T05:46:03.096Z,3032.00
2023-05-18T05:47:04.329Z,3048.00
2023-05-18T05:48:03.408Z,3060.00
2023-05-18T05:49:03.569Z,3096.00
2023-05-18T05:50:03.731Z,3116.00
2023-05-18T05:51:03.916Z,3144.00
2023-05-18T05:52:04.746Z,3156.00
2023-05-18T05:53:04.228Z,3200.00
2023-05-18T05:54:05.199Z,3196.00
2023-05-18T05:55:05.578Z,3224.00
2023-05-18T05:56:04.701Z,3228.00
2023-05-18T05:57:04.942Z,4304.00
2023-05-18T05:58:05.080Z,3760.00
2023-05-18T05:59:06.221Z,4420.00
2023-05-18T06:00:05.338Z,2968.00
2023-05-18T06:01:06.259Z,3356.00
2023-05-18T06:02:05.745Z,3384.00
2023-05-18T06:03:05.970Z,14252.00
2023-05-18T06:04:06.048Z,6324.00
2023-05-18T06:05:06.228Z,3440.00
2023-05-18T06:06:06.407Z,3480.00
2023-05-18T06:07:06.599Z,3492.00
2023-05-18T06:08:07.754Z,3548.00
2023-05-18T06:09:06.996Z,3516.00
2023-05-18T06:10:07.759Z,3596.00
2023-05-18T06:11:09.354Z,3572.00
2023-05-18T06:12:08.266Z,3468.00
2023-05-18T06:13:08.756Z,3496.00
2023-05-18T06:14:07.907Z,3804.00
2023-05-18T06:15:08.769Z,5488.00
2023-05-18T06:16:08.321Z,4092.00
2023-05-18T06:17:08.413Z,5912.00
2023-05-18T06:18:09.547Z,4756.00
2023-05-18T06:19:08.790Z,3788.00
2023-05-18T06:20:08.939Z,3784.00
2023-05-18T06:21:09.105Z,6244.00
2023-05-18T06:22:09.258Z,6388.00
2023-05-18T06:23:09.454Z,5172.00
2023-05-18T06:24:10.256Z,4484.00
2023-05-18T06:25:09.777Z,5556.00
2023-05-18T06:26:09.940Z,3852.00
2023-05-18T06:27:10.766Z,4376.00
2023-05-18T06:28:10.355Z,4208.00
2023-05-18T06:29:10.535Z,4424.00
2023-05-18T06:30:10.731Z,3916.00
2023-05-18T06:31:12.768Z,3908.00
2023-05-18T06:32:11.195Z,3948.00
2023-05-18T06:33:11.439Z,3932.00
2023-05-18T06:34:12.325Z,3948.00
2023-05-18T06:35:11.705Z,3960.00
2023-05-18T06:36:11.876Z,3960.00
2023-05-18T06:37:12.037Z,3976.00
2023-05-18T06:38:12.809Z,3984.00
2023-05-18T06:39:13.335Z,3992.00
2023-05-18T06:40:12.588Z,4044.00
2023-05-18T06:41:12.708Z,4032.00
2023-05-18T06:42:13.762Z,4064.00
2023-05-18T06:43:13.811Z,4088.00
2023-05-18T06:44:14.270Z,4108.00
2023-05-18T06:45:13.368Z,4128.00
2023-05-18T06:46:13.550Z,4120.00
2023-05-18T06:47:13.840Z,4128.00
2023-05-18T06:48:13.952Z,4140.00
2023-05-18T06:49:14.782Z,4176.00
2023-05-18T06:50:14.256Z,4188.00
2023-05-18T06:51:14.494Z,4196.00
2023-05-18T06:52:14.824Z,4220.00
2023-05-18T06:53:14.844Z,4252.00
2023-05-18T06:54:15.022Z,4296.00
2023-05-18T06:55:15.374Z,4304.00
2023-05-18T06:56:16.330Z,4284.00
2023-05-18T06:57:15.566Z,4772.00
2023-05-18T06:58:15.696Z,4404.00
2023-05-18T06:59:16.822Z,5064.00
2023-05-18T07:00:16.788Z,4816.00
2023-05-18T07:01:16.350Z,4472.00
2023-05-18T07:02:16.488Z,8116.00
2023-05-18T07:03:16.820Z,8084.00
2023-05-18T07:04:18.282Z,11040.00
2023-05-18T07:05:16.910Z,5880.00
2023-05-18T07:06:17.766Z,10984.00
2023-05-18T07:07:18.296Z,9772.00
2023-05-18T07:08:17.475Z,8912.00
2023-05-18T07:09:17.674Z,6136.00
2023-05-18T07:10:17.847Z,9200.00
2023-05-18T07:11:18.035Z,21408.00
2023-05-18T07:12:18.187Z,39808.00
2023-05-18T07:13:19.280Z,23264.00
2023-05-18T07:14:18.516Z,7752.00
2023-05-18T07:15:18.681Z,9440.00
2023-05-18T07:16:20.348Z,9928.00
2023-05-18T07:17:18.990Z,8032.00
2023-05-18T07:18:19.161Z,11448.00
2023-05-18T07:19:19.378Z,18720.00
2023-05-18T07:20:19.560Z,12164.00
2023-05-18T07:21:19.714Z,6612.00
2023-05-18T07:22:19.905Z,14464.00
2023-05-18T07:23:20.104Z,7396.00
2023-05-18T07:24:20.821Z,9540.00
2023-05-18T07:25:21.360Z,4568.00
2023-05-18T07:26:21.285Z,6520.00
2023-05-18T07:27:20.827Z,10720.00
2023-05-18T07:28:21.838Z,11788.00
2023-05-18T07:29:21.212Z,16032.00
2023-05-18T07:30:22.824Z,28704.00
2023-05-18T07:31:22.333Z,24832.00
2023-05-18T07:32:21.858Z,5800.00
2023-05-18T07:33:22.044Z,4540.00
2023-05-18T07:34:22.240Z,4672.00
2023-05-18T07:35:22.403Z,5012.00
2023-05-18T07:36:23.327Z,5744.00
2023-05-18T07:37:22.724Z,7464.00
2023-05-18T07:38:24.790Z,7672.00
2023-05-18T07:39:24.291Z,6012.00
2023-05-18T07:40:23.193Z,3284.00
2023-05-18T07:41:25.293Z,4416.00
2023-05-18T07:42:24.346Z,5484.00
2023-05-18T07:43:23.786Z,4796.00
2023-05-18T07:44:25.294Z,5068.00
2023-05-18T07:45:24.207Z,6772.00
2023-05-18T07:46:24.473Z,7792.00
2023-05-18T07:47:24.572Z,10264.00
2023-05-18T07:48:24.801Z,10576.00
2023-05-18T07:49:25.000Z,8940.00
2023-05-18T07:50:25.268Z,15616.00
2023-05-18T07:51:25.348Z,23168.00
2023-05-18T07:52:25.537Z,24032.00
2023-05-18T07:53:25.728Z,13136.00
2023-05-18T07:54:26.794Z,8912.00
2023-05-18T07:55:26.349Z,5372.00
2023-05-18T07:56:26.266Z,4412.00
2023-05-18T07:57:26.438Z,4444.00
2023-05-18T07:58:26.603Z,9068.00
2023-05-18T07:59:27.375Z,5568.00
2023-05-18T08:00:27.789Z,4304.00
2023-05-18T08:01:27.150Z,4420.00
2023-05-18T08:02:27.455Z,4356.00
2023-05-18T08:03:28.411Z,4172.00
2023-05-18T08:04:27.772Z,4728.00
2023-05-18T08:05:28.947Z,4312.00
2023-05-18T08:06:28.039Z,4600.00
2023-05-18T08:07:28.210Z,4248.00
2023-05-18T08:08:29.412Z,4380.00
2023-05-18T08:09:28.559Z,9312.00
2023-05-18T08:10:29.293Z,9096.00
2023-05-18T08:11:28.919Z,5688.00
2023-05-18T08:12:29.082Z,6428.00
2023-05-18T08:13:29.804Z,5120.00
2023-05-18T08:14:29.469Z,4404.00
2023-05-18T08:15:29.860Z,4068.00
2023-05-18T08:16:31.817Z,4268.00
2023-05-18T08:17:30.132Z,4216.00
2023-05-18T08:18:30.255Z,4276.00
2023-05-18T08:19:30.439Z,4428.00
2023-05-18T08:20:30.525Z,4432.00
2023-05-18T08:21:30.771Z,4456.00
2023-05-18T08:22:31.797Z,3932.00
2023-05-18T08:23:31.086Z,3384.00
2023-05-18T08:24:31.296Z,3560.00
2023-05-18T08:25:31.672Z,3688.00
2023-05-18T08:26:32.346Z,3524.00
2023-05-18T08:27:32.295Z,3544.00
2023-05-18T08:28:31.990Z,3780.00
2023-05-18T08:29:33.801Z,3724.00
2023-05-18T08:30:33.293Z,4428.00
2023-05-18T08:31:32.427Z,4428.00
2023-05-18T08:32:32.640Z,4028.00
2023-05-18T08:33:33.314Z,4632.00
2023-05-18T08:34:33.377Z,3964.00
2023-05-18T08:35:33.207Z,4620.00
2023-05-18T08:36:33.195Z,4836.00
2023-05-18T08:37:33.359Z,4076.00
2023-05-18T08:38:33.549Z,4236.00
2023-05-18T08:39:34.709Z,4872.00
2023-05-18T08:40:35.300Z,4940.00
2023-05-18T08:41:34.839Z,4480.00
2023-05-18T08:42:48.518Z,4752.00
2023-05-18T08:43:36.432Z,3764.00
2023-05-18T08:44:34.560Z,3596.00
2023-05-18T08:45:34.703Z,3756.00
2023-05-18T08:46:34.874Z,4372.00
2023-05-18T08:47:35.145Z,4728.00
2023-05-18T08:48:35.292Z,4352.00
2023-05-18T08:49:36.421Z,4328.00
2023-05-18T08:50:36.302Z,4868.00
2023-05-18T08:51:37.308Z,4456.00
2023-05-18T08:52:36.092Z,4108.00
2023-05-18T08:53:36.841Z,4456.00
2023-05-18T08:54:36.466Z,4452.00
2023-05-18T08:55:36.598Z,4392.00
2023-05-18T08:56:36.792Z,4396.00
2023-05-18T08:57:37.353Z,4360.00
2023-05-18T08:58:37.142Z,4376.00
2023-05-18T08:59:37.327Z,4420.00
2023-05-18T09:00:38.400Z,4360.00
2023-05-18T09:01:37.790Z,3752.00
2023-05-18T09:02:37.951Z,4416.00
2023-05-18T09:03:38.131Z,4480.00
2023-05-18T09:04:39.843Z,4400.00
2023-05-18T09:05:38.519Z,4452.00
2023-05-18T09:06:39.351Z,4316.00
2023-05-18T09:07:39.806Z,3984.00
2023-05-18T09:08:39.847Z,4368.00
2023-05-18T09:09:39.806Z,4452.00
2023-05-18T09:10:39.342Z,4432.00
2023-05-18T09:11:40.804Z,4268.00
2023-05-18T09:12:40.302Z,4168.00
2023-05-18T09:13:39.817Z,4140.00
2023-05-18T09:14:41.311Z,4076.00
2023-05-18T09:15:40.887Z,5388.00
2023-05-18T09:16:40.331Z,5908.00
2023-05-18T09:17:41.397Z,4780.00
2023-05-18T09:18:41.190Z,4504.00
2023-05-18T09:19:41.394Z,4228.00
2023-05-18T09:20:41.068Z,4336.00
2023-05-18T09:21:41.816Z,4364.00
2023-05-18T09:22:41.472Z,4288.00
2023-05-18T09:23:41.665Z,4336.00
2023-05-18T09:24:42.349Z,4476.00
2023-05-18T09:25:42.009Z,4440.00
2023-05-18T09:26:42.225Z,4436.00
2023-05-18T09:27:44.173Z,4284.00
2023-05-18T09:28:42.551Z,4220.00
2023-05-18T09:29:43.380Z,4532.00
2023-05-18T09:30:42.903Z,5836.00
2023-05-18T09:31:43.142Z,7208.00
2023-05-18T09:32:43.906Z,5148.00
2023-05-18T09:33:44.326Z,3424.00
2023-05-18T09:34:44.316Z,3368.00
2023-05-18T09:35:43.836Z,3432.00
2023-05-18T09:36:44.030Z,3868.00
2023-05-18T09:37:44.186Z,5308.00
2023-05-18T09:38:44.390Z,4460.00
2023-05-18T09:39:44.577Z,4508.00
2023-05-18T09:40:44.683Z,3932.00
2023-05-18T09:41:44.836Z,4544.00
2023-05-18T09:42:45.828Z,4248.00
2023-05-18T09:43:45.379Z,4436.00
2023-05-18T09:44:46.681Z,4296.00
2023-05-18T09:45:46.360Z,4680.00
2023-05-18T09:46:45.918Z,4164.00
2023-05-18T09:47:46.863Z,3980.00
2023-05-18T09:48:46.823Z,4020.00
2023-05-18T09:49:46.491Z,4072.00
2023-05-18T09:50:47.358Z,3144.00
2023-05-18T09:51:46.768Z,3624.00
2023-05-18T09:52:46.914Z,4068.00
2023-05-18T09:53:49.833Z,4000.00
2023-05-18T09:54:48.324Z,4068.00
2023-05-18T09:55:47.456Z,4068.00
2023-05-18T09:56:55.340Z,4084.00
2023-05-18T09:57:50.384Z,4136.00
2023-05-18T09:58:47.870Z,3852.00
2023-05-18T09:59:48.380Z,3884.00
2023-05-18T10:00:48.877Z,3924.00
2023-05-18T10:01:48.430Z,3912.00
2023-05-18T10:02:48.628Z,4620.00
2023-05-18T10:03:48.855Z,3044.00
2023-05-18T10:04:50.112Z,4336.00
2023-05-18T10:05:49.258Z,4500.00
2023-05-18T10:06:49.454Z,5576.00
2023-05-18T10:07:49.640Z,6136.00
2023-05-18T10:08:50.372Z,3680.00
2023-05-18T10:09:50.830Z,3524.00
2023-05-18T10:10:51.830Z,4328.00
2023-05-18T10:11:50.484Z,4588.00
2023-05-18T10:12:51.380Z,3320.00
2023-05-18T10:13:51.866Z,3156.00
2023-05-18T10:14:51.116Z,4728.00
2023-05-18T10:15:51.280Z,2888.00
2023-05-18T10:16:55.212Z,4384.00
2023-05-18T10:17:52.620Z,3440.00
2023-05-18T10:18:52.400Z,4504.00
2023-05-18T10:19:51.939Z,4344.00
2023-05-18T10:20:52.085Z,5136.00
2023-05-18T10:21:52.834Z,4716.00
2023-05-18T10:22:53.336Z,5136.00
2023-05-18T10:23:53.333Z,4420.00
2023-05-18T10:24:52.951Z,3640.00
2023-05-18T10:25:53.875Z,3444.00
2023-05-18T10:26:55.712Z,3460.00
2023-05-18T10:27:53.454Z,2504.00
2023-05-18T10:28:53.672Z,2800.00
2023-05-18T10:29:53.883Z,3636.00
2023-05-18T10:30:53.943Z,3776.00
2023-05-18T10:31:54.094Z,3468.00
2023-05-18T10:32:54.304Z,3996.00
2023-05-18T10:33:54.890Z,3428.00
2023-05-18T10:34:55.341Z,3464.00
2023-05-18T10:35:55.208Z,3712.00
2023-05-18T10:36:54.831Z,3548.00
2023-05-18T10:37:54.997Z,3436.00
2023-05-18T10:38:55.167Z,3304.00
2023-05-18T10:39:55.297Z,3220.00
2023-05-18T10:40:56.352Z,3120.00
2023-05-18T10:41:56.343Z,3484.00
2023-05-18T10:42:56.390Z,3416.00
2023-05-18T10:43:55.928Z,4208.00
2023-05-18T10:44:56.873Z,3832.00
2023-05-18T10:45:57.460Z,3352.00
2023-05-18T10:46:56.539Z,3352.00
2023-05-18T10:47:56.570Z,3284.00
2023-05-18T10:48:56.899Z,3292.00
2023-05-18T10:49:56.972Z,3304.00
2023-05-18T10:50:57.894Z,3164.00
2023-05-18T10:51:57.310Z,3096.00
2023-05-18T10:52:57.503Z,2480.00
2023-05-18T10:53:58.402Z,3348.00
2023-05-18T10:54:57.840Z,3388.00
2023-05-18T10:55:58.855Z,3260.00
2023-05-18T10:56:58.135Z,3260.00
2023-05-18T10:57:58.888Z,2824.00
2023-05-18T10:58:59.410Z,3268.00
2023-05-18T10:59:58.674Z,2304.00
2023-05-18T11:00:59.395Z,3504.00
2023-05-18T11:01:59.087Z,3196.00
2023-05-18T11:02:59.196Z,3096.00
2023-05-18T11:03:59.405Z,3064.00
2023-05-18T11:05:00.412Z,3092.00
2023-05-18T11:06:00.354Z,3104.00
2023-05-18T11:06:59.858Z,2296.00
2023-05-18T11:08:00.891Z,3092.00
2023-05-18T11:09:00.226Z,3048.00
2023-05-18T11:10:01.419Z,3044.00
2023-05-18T11:11:00.577Z,3068.00
2023-05-18T11:12:00.784Z,2928.00
2023-05-18T11:13:02.359Z,3072.00
2023-05-18T11:14:01.125Z,3312.00
2023-05-18T11:15:01.283Z,3212.00
2023-05-18T11:16:01.475Z,3204.00
2023-05-18T11:17:01.649Z,3200.00
2023-05-18T11:18:01.955Z,3096.00
2023-05-18T11:19:03.025Z,3080.00
2023-05-18T11:20:02.244Z,3060.00
2023-05-18T11:21:02.440Z,3040.00
2023-05-18T11:22:03.390Z,3060.00
2023-05-18T11:23:02.822Z,3064.00
2023-05-18T11:24:02.976Z,2352.00
2023-05-18T11:25:03.161Z,3092.00
2023-05-18T11:26:03.334Z,2808.00
2023-05-18T11:27:04.356Z,3016.00
2023-05-18T11:28:03.902Z,3008.00
2023-05-18T11:29:03.953Z,3096.00
2023-05-18T11:30:15.174Z,3056.00
2023-05-18T11:31:06.231Z,3180.00
2023-05-18T11:32:05.254Z,3240.00
2023-05-18T11:33:04.692Z,2212.00
2023-05-18T11:34:05.358Z,2128.00
2023-05-18T11:35:05.005Z,3376.00
2023-05-18T11:36:05.868Z,3312.00
2023-05-18T11:37:06.360Z,3268.00
2023-05-18T11:38:05.623Z,3216.00
2023-05-18T11:39:05.803Z,3144.00
2023-05-18T11:40:10.167Z,3172.00
2023-05-18T11:41:07.175Z,3224.00
2023-05-18T11:42:06.313Z,3248.00
2023-05-18T11:43:07.394Z,3296.00
2023-05-18T11:44:06.755Z,3300.00
2023-05-18T11:45:06.884Z,3292.00
2023-05-18T11:46:07.096Z,3348.00
2023-05-18T11:47:07.340Z,3328.00
2023-05-18T11:48:08.477Z,3380.00
2023-05-18T11:49:09.487Z,3192.00
2023-05-18T11:50:08.876Z,3184.00
2023-05-18T11:51:08.899Z,2996.00
2023-05-18T11:52:08.180Z,3488.00
2023-05-18T11:53:09.855Z,3264.00
2023-05-18T11:54:08.611Z,3448.00
2023-05-18T11:55:08.802Z,3536.00
2023-05-18T11:56:09.970Z,2224.00
2023-05-18T11:57:10.970Z,2048.00
2023-05-18T11:58:10.372Z,3688.00
2023-05-18T11:59:10.357Z,3596.00
2023-05-18T12:00:10.442Z,3552.00
2023-05-18T12:01:09.856Z,3256.00
2023-05-18T12:02:10.991Z,2520.00
2023-05-18T12:03:12.397Z,2992.00
2023-05-18T12:04:10.538Z,3832.00
2023-05-18T12:05:11.424Z,3508.00
2023-05-18T12:06:10.816Z,3836.00
2023-05-18T12:07:11.902Z,3772.00
2023-05-18T12:08:11.724Z,3680.00
2023-05-18T12:09:11.380Z,3776.00
2023-05-18T12:10:11.653Z,3676.00
2023-05-18T12:11:12.362Z,3528.00
2023-05-18T12:12:11.910Z,3544.00
2023-05-18T12:13:12.160Z,3420.00
2023-05-18T12:14:12.381Z,3228.00
2023-05-18T12:15:13.499Z,2268.00
2023-05-18T12:16:12.753Z,3536.00
2023-05-18T12:17:12.954Z,3080.00
2023-05-18T12:18:13.080Z,3780.00
2023-05-18T12:19:13.475Z,3676.00
2023-05-18T12:20:13.472Z,3848.00
2023-05-18T12:21:14.867Z,4076.00
2023-05-18T12:22:14.397Z,4072.00
2023-05-18T12:23:14.866Z,3928.00
2023-05-18T12:24:14.546Z,4008.00
2023-05-18T12:25:15.231Z,4000.00
2023-05-18T12:26:15.360Z,3900.00
2023-05-18T12:27:14.640Z,3852.00